Time;durP1;ratioP1;P1;durP2;ratioP2;P2;SDS_P1;SDS_P2;PMS_P1;PMS_P2;Temp;Humidity;BMP_temperature;BMP_pressure;BME280_temperature;BME280_humidity;BME280_pressure;Samples;Min_cycle;Max_cycle;Signal;HPM_P1;HPM_P2
2022/08/31 00:05:22;;;;;;;9.38;8.25;;;;;;;21.43;68.94;95648.00;4960240;29;20258;-80
2022/08/31 00:07:49;;;;;;;9.55;8.65;;;;;;;21.50;68.57;95653.88;4959237;28;20244;-80
2022/08/31 00:10:17;;;;;;;10.25;9.25;;;;;;;21.58;68.28;95654.22;4959787;28;20232;-81
2022/08/31 00:12:46;;;;;;;10.18;8.85;;;;;;;21.55;68.97;95662.56;4960607;28;20201;-80
2022/08/31 00:15:16;;;;;;;8.70;7.90;;;;;;;21.69;68.33;95650.72;4959904;28;20211;-80
2022/08/31 00:17:43;;;;;;;8.93;7.72;;;;;;;21.73;68.28;95653.66;4959158;28;20269;-80
2022/08/31 00:20:11;;;;;;;10.18;7.75;;;;;;;21.56;68.95;95655.50;4958738;28;20209;-80
2022/08/31 00:22:38;;;;;;;8.93;8.02;;;;;;;21.49;69.28;95655.72;4959544;28;20205;-81
2022/08/31 00:25:05;;;;;;;8.85;8.05;;;;;;;21.57;68.71;95662.34;4959539;29;20650;-80
2022/08/31 00:27:32;;;;;;;9.63;7.68;;;;;;;21.62;68.53;95657.16;4960033;28;20224;-80
2022/08/31 00:29:58;;;;;;;10.07;7.97;;;;;;;21.64;68.62;95668.19;4959615;28;20236;-80
2022/08/31 00:32:26;;;;;;;8.32;7.63;;;;;;;21.72;67.78;95670.41;4959383;28;20209;-79
2022/08/31 00:34:52;;;;;;;9.13;8.30;;;;;;;21.77;67.35;95664.41;4959750;28;20272;-81
2022/08/31 00:37:19;;;;;;;9.02;8.30;;;;;;;21.72;67.76;95662.53;4959199;28;20209;-80
2022/08/31 00:39:45;;;;;;;9.20;8.40;;;;;;;21.62;68.47;95659.78;4959196;28;20256;-79
2022/08/31 00:42:12;;;;;;;8.70;8.00;;;;;;;21.49;68.81;95655.72;4959278;28;20225;-81
2022/08/31 00:44:39;;;;;;;9.35;7.80;;;;;;;21.41;69.50;95663.19;4959117;28;20201;-81
2022/08/31 00:47:06;;;;;;;9.80;8.25;;;;;;;21.38;69.57;95664.44;4958753;28;20677;-79
2022/08/31 00:49:37;;;;;;;9.02;8.25;;;;;;;21.45;69.23;95659.84;4959220;28;20238;-80
2022/08/31 00:52:08;;;;;;;8.85;8.05;;;;;;;21.40;69.32;95659.75;4959061;28;20204;-81
2022/08/31 00:54:39;;;;;;;8.77;7.95;;;;;;;21.45;68.61;95661.66;4959393;28;20200;-80
2022/08/31 00:57:07;;;;;;;9.60;8.80;;;;;;;21.38;69.09;95654.75;4958713;28;20212;-81
2022/08/31 00:59:34;;;;;;;9.13;8.25;;;;;;;21.28;69.72;95652.03;4958310;28;20240;-80
2022/08/31 01:02:01;;;;;;;9.68;8.43;;;;;;;21.21;69.92;95653.22;4958250;28;20196;-80
2022/08/31 01:04:27;;;;;;;8.02;7.40;;;;;;;21.10;70.17;95654.09;4973493;28;20223;-80
2022/08/31 01:06:56;;;;;;;9.77;8.52;;;;;;;21.09;70.42;95650.69;4978140;28;20215;-80
2022/08/31 01:09:24;;;;;;;10.80;8.57;;;;;;;21.14;70.21;95644.72;4977063;28;20295;-80
2022/08/31 01:11:51;;;;;;;9.57;8.00;;;;;;;21.14;70.55;95644.72;4977544;28;20204;-79
2022/08/31 01:14:18;;;;;;;9.15;8.35;;;;;;;21.13;71.08;95643.94;4978335;28;20212;-80
2022/08/31 01:16:48;;;;;;;9.02;8.15;;;;;;;21.13;70.53;95649.16;4978624;28;20207;-81
2022/08/31 01:19:22;;;;;;;8.82;8.10;;;;;;;21.16;70.03;95650.53;4977604;28;20235;-80
2022/08/31 01:21:56;;;;;;;9.77;8.90;;;;;;;21.09;70.53;95648.06;4978354;28;20208;-81
2022/08/31 01:24:27;;;;;;;8.82;7.93;;;;;;;21.13;71.02;95659.66;4978237;28;20203;-81
2022/08/31 01:26:54;;;;;;;8.68;7.90;;;;;;;21.16;70.57;95653.94;4977836;28;20271;-78
2022/08/31 01:29:20;;;;;;;9.75;8.85;;;;;;;21.01;70.76;95657.09;4977097;28;20689;-80
2022/08/31 01:31:47;;;;;;;9.45;8.63;;;;;;;21.04;70.31;95659.25;4977481;28;20223;-81
2022/08/31 01:34:14;;;;;;;9.20;8.30;;;;;;;20.96;70.86;95661.50;4977768;28;20228;-81
2022/08/31 01:36:42;;;;;;;9.60;8.73;;;;;;;20.93;70.72;95654.91;4977623;28;20201;-80
2022/08/31 01:39:11;;;;;;;9.07;8.25;;;;;;;20.91;71.05;95650.94;4976538;28;20239;-80
2022/08/31 01:41:42;;;;;;;9.45;8.55;;;;;;;20.92;70.83;95648.09;4977326;28;20231;-80
2022/08/31 01:44:09;;;;;;;8.73;7.93;;;;;;;20.97;70.87;95647.38;4977434;28;20208;-80
2022/08/31 01:46:35;;;;;;;9.05;8.15;;;;;;;20.97;70.75;95650.75;4977505;28;20204;-80
2022/08/31 01:49:01;;;;;;;8.63;7.78;;;;;;;20.99;70.96;95653.94;4976436;28;20846;-81
2022/08/31 01:51:28;;;;;;;8.38;7.68;;;;;;;20.98;70.99;95652.34;4976177;28;20207;-80
2022/08/31 01:53:55;;;;;;;8.73;7.95;;;;;;;20.98;70.63;95648.94;4977601;28;20266;-79
2022/08/31 01:56:25;;;;;;;8.88;8.07;;;;;;;20.90;71.28;95655.38;4977802;28;20200;-80
2022/08/31 01:58:53;;;;;;;9.45;7.82;;;;;;;20.98;70.55;95647.09;4976248;28;20235;-79
2022/08/31 02:01:26;;;;;;;8.40;7.70;;;;;;;21.02;70.08;95650.03;4976262;28;20572;-80
2022/08/31 02:03:52;;;;;;;8.25;7.45;;;;;;;21.00;70.16;95642.44;4977381;28;20201;-81
2022/08/31 02:06:18;;;;;;;8.60;7.22;;;;;;;21.08;69.91;95648.31;4976270;28;20204;-80
2022/08/31 02:08:45;;;;;;;8.23;7.43;;;;;;;21.08;69.70;95641.25;4976276;28;20302;-80
2022/08/31 02:11:11;;;;;;;7.93;7.20;;;;;;;21.00;69.89;95642.44;4976056;28;20224;-80
2022/08/31 02:13:38;;;;;;;7.25;6.55;;;;;;;21.02;69.71;95639.56;4976704;28;20243;-81
2022/08/31 02:16:06;;;;;;;10.70;7.45;;;;;;;20.94;69.93;95642.63;4976999;28;20258;-80
2022/08/31 02:18:35;;;;;;;7.97;7.28;;;;;;;20.88;69.79;95636.50;4976120;28;20240;-80
2022/08/31 02:21:02;;;;;;;8.05;7.35;;;;;;;20.80;70.03;95642.13;4975110;28;20225;-81
2022/08/31 02:23:29;;;;;;;7.75;7.15;;;;;;;20.79;70.62;95637.91;4976525;28;20238;-79
2022/08/31 02:25:55;;;;;;;8.48;7.70;;;;;;;20.77;70.22;95644.44;4976656;28;20215;-80
2022/08/31 02:28:22;;;;;;;8.18;7.30;;;;;;;20.77;70.59;95642.63;4975680;28;20730;-80
2022/08/31 02:30:49;;;;;;;8.10;7.30;;;;;;;20.86;70.18;95640.38;4975793;28;20363;-80
2022/08/31 02:33:17;;;;;;;8.20;7.47;;;;;;;20.86;70.16;95637.78;4976434;28;20620;-79
2022/08/31 02:35:44;;;;;;;9.43;7.70;;;;;;;20.80;70.31;95636.88;4976705;28;20223;-79
2022/08/31 02:38:11;;;;;;;11.25;7.25;;;;;;;20.82;70.23;95640.06;4975556;28;20235;-80
2022/08/31 02:40:39;;;;;;;7.57;6.97;;;;;;;20.68;71.09;95644.84;4975474;28;20208;-79
2022/08/31 02:43:07;;;;;;;8.75;7.13;;;;;;;20.71;70.87;95646.19;4976199;28;20295;-80
2022/08/31 02:45:33;;;;;;;7.70;7.07;;;;;;;20.80;70.43;95644.75;4976730;28;20204;-80
2022/08/31 02:47:59;;;;;;;7.70;7.10;;;;;;;20.82;70.64;95640.06;4975308;28;20807;-81
2022/08/31 02:50:27;;;;;;;8.40;7.60;;;;;;;20.79;71.32;95647.59;4974984;28;20248;-80
2022/08/31 02:52:55;;;;;;;8.05;7.32;;;;;;;20.81;71.06;95648.94;4976278;28;20208;-79
2022/08/31 02:55:23;;;;;;;7.40;6.70;;;;;;;20.87;70.62;95648.00;4976237;28;20731;-80
2022/08/31 02:57:50;;;;;;;8.48;7.40;;;;;;;20.87;70.08;95645.38;4975410;28;20220;-80
2022/08/31 03:00:17;;;;;;;9.00;7.40;;;;;;;20.91;70.28;95641.25;4975846;28;20269;-80
2022/08/31 03:02:43;;;;;;;7.82;7.10;;;;;;;20.82;70.79;95639.28;4976002;28;20296;-79
2022/08/31 03:05:11;;;;;;;7.90;7.10;;;;;;;20.94;70.34;95637.38;4975950;28;20207;-80
2022/08/31 03:07:39;;;;;;;7.53;6.55;;;;;;;20.93;70.05;95641.81;4976241;28;20595;-80
2022/08/31 03:10:09;;;;;;;8.30;7.43;;;;;;;20.89;70.13;95639.91;4974395;28;20220;-81
2022/08/31 03:12:35;;;;;;;7.93;7.22;;;;;;;20.82;70.50;95644.50;4975415;28;20827;-80
2022/08/31 03:15:02;;;;;;;8.10;7.40;;;;;;;20.79;70.94;95651.00;4975020;28;20245;-81
2022/08/31 03:17:28;;;;;;;8.80;7.10;;;;;;;20.78;70.83;95643.41;4975100;28;20208;-81
2022/08/31 03:20:03;;;;;;;8.18;7.38;;;;;;;20.70;71.51;95636.75;4975170;28;20232;-79
2022/08/31 03:22:29;;;;;;;7.97;7.30;;;;;;;20.64;71.17;95640.31;4975564;28;20200;-81
2022/08/31 03:24:57;;;;;;;8.77;7.97;;;;;;;20.60;71.57;95645.22;4974802;28;20250;-80
2022/08/31 03:27:28;;;;;;;8.52;7.72;;;;;;;20.64;71.37;95646.34;4974956;28;20200;-79
2022/08/31 03:29:54;;;;;;;8.77;7.70;;;;;;;20.63;71.21;95636.91;4974628;28;20235;-80
2022/08/31 03:32:21;;;;;;;9.63;7.75;;;;;;;20.55;71.79;95641.75;4975823;28;20236;-81
2022/08/31 03:34:47;;;;;;;7.68;6.97;;;;;;;20.58;72.09;95638.66;4978436;28;20839;-79
2022/08/31 03:37:14;;;;;;;7.90;7.15;;;;;;;20.69;71.42;95637.78;4978198;28;20212;-79
2022/08/31 03:39:40;;;;;;;8.13;7.05;;;;;;;20.80;71.01;95647.34;4978515;28;20224;-80
2022/08/31 03:42:08;;;;;;;9.75;7.28;;;;;;;20.82;71.45;95649.75;4977813;28;20216;-80
2022/08/31 03:44:34;;;;;;;8.10;7.30;;;;;;;20.91;70.92;95653.56;4978959;28;20208;-80
2022/08/31 03:47:01;;;;;;;8.77;7.88;;;;;;;20.87;70.96;95657.69;4978491;28;20278;-80
2022/08/31 03:49:27;;;;;;;8.32;7.60;;;;;;;20.82;70.83;95647.13;4977269;28;20290;-80
2022/08/31 03:51:53;;;;;;;8.68;7.80;;;;;;;20.66;71.56;95657.34;4978015;28;20228;-81
2022/08/31 03:54:20;;;;;;;8.15;7.35;;;;;;;20.66;71.50;95659.97;4979037;28;20203;-79
2022/08/31 03:56:46;;;;;;;9.55;8.00;;;;;;;20.58;71.98;95660.38;4978259;28;20676;-80
2022/08/31 03:59:14;;;;;;;8.63;7.70;;;;;;;20.50;72.30;95666.00;4978002;28;20239;-81
2022/08/31 04:01:41;;;;;;;8.38;7.57;;;;;;;20.50;72.95;95666.00;4978411;28;20219;-79
2022/08/31 04:04:08;;;;;;;8.88;7.85;;;;;;;20.50;72.83;95676.47;4978219;28;20211;-81
2022/08/31 04:06:35;;;;;;;8.48;7.57;;;;;;;20.56;72.32;95682.59;4978144;28;20311;-81
2022/08/31 04:09:01;;;;;;;10.45;7.75;;;;;;;20.58;72.57;95677.91;4978040;28;20235;-80
2022/08/31 04:11:27;;;;;;;8.48;7.65;;;;;;;20.50;72.73;95684.31;4977848;28;20227;-79
2022/08/31 04:13:54;;;;;;;8.32;7.55;;;;;;;20.50;72.79;95679.06;4978477;28;20251;-80
2022/08/31 04:16:23;;;;;;;10.82;7.70;;;;;;;20.44;73.27;95680.00;4978651;28;20215;-81
2022/08/31 04:18:50;;;;;;;8.80;7.53;;;;;;;20.52;73.01;95673.59;4978005;28;20235;-81
2022/08/31 04:21:19;;;;;;;8.82;7.40;;;;;;;20.57;73.00;95669.25;4976426;28;20688;-80
2022/08/31 04:23:46;;;;;;;8.30;7.50;;;;;;;20.67;72.81;95669.41;4978233;28;20292;-80
2022/08/31 04:26:17;;;;;;;9.55;7.40;;;;;;;20.58;73.08;95668.25;4978475;28;20211;-80
2022/08/31 04:28:44;;;;;;;8.95;7.63;;;;;;;20.51;73.03;95677.25;4977482;28;20295;-79
2022/08/31 04:31:10;;;;;;;8.50;7.47;;;;;;;20.53;73.24;95676.00;4977133;28;20231;-80
2022/08/31 04:33:39;;;;;;;7.97;7.30;;;;;;;20.58;73.08;95670.06;4978202;28;20688;-81
2022/08/31 04:36:07;;;;;;;8.25;7.45;;;;;;;20.56;72.98;95672.91;4977846;28;20239;-80
2022/08/31 04:38:33;;;;;;;8.27;7.57;;;;;;;20.54;72.94;95669.72;4976607;28;20240;-81
2022/08/31 04:41:04;;;;;;;8.13;7.43;;;;;;;20.51;73.86;95677.25;4975538;28;20231;-80
2022/08/31 04:43:30;;;;;;;8.27;7.55;;;;;;;20.49;74.01;95677.50;4961270;28;20267;-83
2022/08/31 04:45:57;;;;;;;8.10;7.40;;;;;;;20.49;74.05;95677.50;4966286;28;20295;-80
2022/08/31 04:48:23;;;;;;;8.18;7.47;;;;;;;20.49;74.27;95677.50;4963189;28;20529;-81
2022/08/31 04:50:51;;;;;;;8.40;7.60;;;;;;;20.46;74.71;95677.16;4975733;28;20271;-80
2022/08/31 04:53:17;;;;;;;8.93;8.00;;;;;;;20.48;74.32;95677.72;4979333;28;20210;-81
2022/08/31 04:55:44;;;;;;;8.95;8.15;;;;;;;20.48;75.29;95682.94;4977769;28;20634;-80
2022/08/31 04:58:11;;;;;;;8.48;7.68;;;;;;;20.61;74.34;95680.03;4977275;28;20236;-81
2022/08/31 05:00:38;;;;;;;8.55;7.68;;;;;;;20.69;75.20;95680.44;4978192;28;20208;-80
2022/08/31 05:03:04;;;;;;;8.35;7.40;;;;;;;20.86;73.91;95682.25;4973627;28;20213;-80
2022/08/31 05:05:31;;;;;;;8.25;7.38;;;;;;;20.90;74.13;95686.78;4974717;28;20204;-80
2022/08/31 05:07:58;;;;;;;8.20;7.40;;;;;;;20.88;74.15;95682.81;4975231;28;20232;-83
2022/08/31 05:10:26;;;;;;;8.25;7.43;;;;;;;20.88;74.51;95683.63;4974502;28;20216;-84
2022/08/31 05:12:53;;;;;;;8.20;7.50;;;;;;;20.84;74.93;95690.34;4975517;28;20208;-83
2022/08/31 05:15:19;;;;;;;8.65;7.70;;;;;;;20.92;74.36;95689.16;4975865;28;20600;-83
2022/08/31 05:17:45;;;;;;;8.55;7.70;;;;;;;20.96;74.56;95690.28;4975590;28;20236;-83
2022/08/31 05:20:12;;;;;;;8.88;7.93;;;;;;;20.98;74.39;95688.19;4975036;28;20204;-84
2022/08/31 05:22:39;;;;;;;9.88;7.45;;;;;;;20.96;74.55;95680.63;4975752;28;20793;-83
2022/08/31 05:25:08;;;;;;;10.85;7.95;;;;;;;20.89;75.23;95690.44;4975089;28;20727;-83
2022/08/31 05:27:37;;;;;;;8.23;7.43;;;;;;;20.94;74.94;95694.97;4975874;28;20224;-84
2022/08/31 05:30:04;;;;;;;10.85;8.63;;;;;;;20.91;75.35;95692.81;4966429;28;20232;-82
2022/08/31 05:32:31;;;;;;;10.20;8.65;;;;;;;20.84;75.34;95690.34;4974862;28;20235;-83
2022/08/31 05:35:00;;;;;;;8.68;7.95;;;;;;;20.79;75.33;95694.69;4974753;28;20604;-83
2022/08/31 05:37:26;;;;;;;9.00;8.13;;;;;;;20.76;75.77;95689.97;4974293;28;20595;-82
2022/08/31 05:39:53;;;;;;;8.90;8.00;;;;;;;20.73;75.68;95700.91;4974673;28;20224;-83
2022/08/31 05:42:20;;;;;;;9.40;8.52;;;;;;;20.65;77.05;95689.78;4974396;28;20290;-84
2022/08/31 05:44:47;;;;;;;9.07;8.27;;;;;;;20.63;76.22;95691.06;4974454;28;20738;-83
2022/08/31 05:47:14;;;;;;;9.95;8.45;;;;;;;20.62;76.08;95692.88;4976018;28;20695;-83
2022/08/31 05:49:42;;;;;;;9.43;8.43;;;;;;;20.65;76.08;95691.63;4974971;28;20617;-83
2022/08/31 05:52:09;;;;;;;9.57;8.48;;;;;;;20.64;75.53;95692.63;4978178;28;20323;-83
2022/08/31 05:54:36;;;;;;;8.63;7.80;;;;;;;20.67;75.59;95692.97;4975185;28;20270;-84
2022/08/31 05:57:04;;;;;;;8.77;7.90;;;;;;;20.62;75.59;95695.50;4975435;28;20200;-83
2022/08/31 05:59:32;;;;;;;8.48;7.57;;;;;;;20.71;75.10;95692.50;4975156;28;20662;-83
2022/08/31 06:01:59;;;;;;;8.93;7.57;;;;;;;20.76;74.96;95689.97;4973983;28;20210;-83
2022/08/31 06:04:25;;;;;;;9.27;8.00;;;;;;;20.81;74.78;95688.22;4973961;28;20255;-83
2022/08/31 06:06:52;;;;;;;9.77;7.57;;;;;;;20.90;74.31;95692.03;4974679;28;20215;-83
2022/08/31 06:09:19;;;;;;;8.65;7.82;;;;;;;20.92;74.55;95694.41;4975626;28;20319;-84
2022/08/31 06:11:46;;;;;;;8.82;7.80;;;;;;;20.91;73.78;95696.22;4975164;28;20231;-84
2022/08/31 06:14:13;;;;;;;10.40;8.25;;;;;;;20.88;73.72;95696.69;4975401;28;20204;-82
2022/08/31 06:16:43;;;;;;;10.02;7.95;;;;;;;20.97;73.94;95700.50;4974195;28;20207;-83
2022/08/31 06:19:09;;;;;;;9.50;7.68;;;;;;;20.99;73.85;95706.28;4974330;28;20827;-84
2022/08/31 06:21:41;;;;;;;9.32;7.95;;;;;;;21.05;73.72;95707.16;4973931;28;20676;-83
2022/08/31 06:24:08;;;;;;;9.75;7.65;;;;;;;21.09;73.31;95700.44;4972682;28;21237;-83
2022/08/31 06:26:36;;;;;;;8.30;7.40;;;;;;;21.17;72.75;95704.44;4974804;28;20243;-83
2022/08/31 06:29:05;;;;;;;10.07;7.60;;;;;;;21.11;73.30;95710.66;4973146;28;20236;-83
2022/08/31 06:31:36;;;;;;;11.15;7.80;;;;;;;21.10;72.84;95703.84;4974382;28;20228;-84
2022/08/31 06:34:08;;;;;;;8.25;7.55;;;;;;;21.06;72.51;95705.34;4974458;28;20200;-83
2022/08/31 06:36:34;;;;;;;8.68;7.88;;;;;;;20.90;73.52;95707.72;4973946;28;20263;-84
2022/08/31 06:39:01;;;;;;;8.38;7.47;;;;;;;20.98;73.99;95712.56;4973857;28;20264;-84
2022/08/31 06:41:31;;;;;;;9.82;7.97;;;;;;;20.98;73.48;95717.00;4972734;28;20235;-84
2022/08/31 06:43:59;;;;;;;8.82;7.93;;;;;;;20.95;73.37;95718.28;4973690;28;20288;-84
2022/08/31 06:46:26;;;;;;;9.02;7.60;;;;;;;21.01;73.44;95721.75;4973105;28;20295;-84
2022/08/31 06:48:53;;;;;;;10.93;8.13;;;;;;;20.92;73.30;95723.19;4972754;28;20267;-84
2022/08/31 06:51:21;;;;;;;8.68;7.80;;;;;;;20.91;73.56;95719.00;4974174;28;20230;-84
2022/08/31 06:53:48;;;;;;;8.10;7.40;;;;;;;20.91;73.74;95725.03;4974116;28;20296;-84
2022/08/31 06:56:16;;;;;;;8.63;7.63;;;;;;;20.88;73.91;95732.56;4973795;28;20911;-83
2022/08/31 06:58:43;;;;;;;7.85;7.15;;;;;;;20.96;73.83;95729.56;4972675;28;20647;-83
2022/08/31 07:01:12;;;;;;;8.27;7.47;;;;;;;21.02;73.15;95725.97;4974535;28;20199;-83
2022/08/31 07:03:42;;;;;;;8.40;7.60;;;;;;;20.98;73.73;95725.66;4973668;28;20208;-83
2022/08/31 07:06:13;;;;;;;8.30;7.50;;;;;;;21.08;73.34;95727.63;4974200;28;20230;-82
2022/08/31 07:08:43;;;;;;;8.68;7.88;;;;;;;21.08;72.95;95732.09;4971423;28;20239;-83
2022/08/31 07:11:14;;;;;;;7.90;7.18;;;;;;;21.09;73.15;95725.81;4965464;28;20221;-83
2022/08/31 07:13:42;;;;;;;10.20;7.43;;;;;;;21.02;72.10;95728.59;4968778;28;20847;-83
2022/08/31 07:16:11;;;;;;;8.63;7.57;;;;;;;20.94;72.14;95731.63;4971566;28;20197;-82
2022/08/31 07:18:39;;;;;;;11.27;7.75;;;;;;;20.87;72.72;95733.59;4967097;28;20283;-83
2022/08/31 07:21:08;;;;;;;7.95;7.25;;;;;;;20.91;72.59;95738.13;4972737;28;20203;-83
2022/08/31 07:23:35;;;;;;;8.25;7.50;;;;;;;21.02;72.07;95739.84;4972613;28;20622;-83
2022/08/31 07:26:05;;;;;;;8.85;7.28;;;;;;;21.04;72.55;95743.03;4973057;28;20208;-84
2022/08/31 07:28:32;;;;;;;9.48;7.45;;;;;;;21.03;72.38;95740.66;4970983;28;20255;-84
2022/08/31 07:30:59;;;;;;;8.80;7.20;;;;;;;21.06;72.07;95729.69;4972057;28;20200;-82
2022/08/31 07:33:25;;;;;;;7.75;7.05;;;;;;;21.12;71.95;95744.47;4972037;28;20219;-83
2022/08/31 07:35:52;;;;;;;7.65;6.95;;;;;;;21.17;71.74;95743.72;4973576;28;20200;-84
2022/08/31 07:43:58;;;;;;;8.07;6.97;;;;;;;21.37;71.17;95742.25;4970728;28;20196;-82
2022/08/31 07:46:30;;;;;;;8.27;7.45;;;;;;;21.41;70.96;95753.03;4972238;28;20244;-82
2022/08/31 07:48:57;;;;;;;8.20;7.40;;;;;;;21.31;70.88;95739.81;4972319;28;20630;-82
2022/08/31 07:51:24;;;;;;;8.65;7.35;;;;;;;21.29;70.26;95741.88;4972312;28;20298;-85
2022/08/31 07:53:50;;;;;;;10.80;7.60;;;;;;;21.16;70.73;95750.81;4970995;28;20200;-83
2022/08/31 07:56:19;;;;;;;9.30;7.75;;;;;;;21.15;71.29;95756.31;4973026;28;20201;-83
2022/08/31 07:58:46;;;;;;;8.10;7.30;;;;;;;21.22;71.08;95746.47;4971402;28;20236;-84
2022/08/31 08:01:14;;;;;;;8.20;7.40;;;;;;;21.22;71.11;95754.31;4972026;28;20638;-83
2022/08/31 08:03:42;;;;;;;8.23;7.53;;;;;;;21.24;70.57;95752.25;4974504;28;20250;-83
2022/08/31 08:06:11;;;;;;;9.13;7.57;;;;;;;21.23;70.61;95748.84;4964700;28;20196;-83
2022/08/31 08:08:41;;;;;;;9.27;7.57;;;;;;;21.19;70.88;95763.41;4973743;28;20327;-82
2022/08/31 08:11:07;;;;;;;9.13;7.40;;;;;;;21.22;70.77;95756.94;4973257;28;20196;-83
2022/08/31 08:13:35;;;;;;;10.45;7.68;;;;;;;21.12;72.26;95756.78;4975443;28;20227;-82
2022/08/31 08:16:02;;;;;;;8.90;7.65;;;;;;;21.15;72.05;95764.16;4974585;28;20254;-82
2022/08/31 08:18:29;;;;;;;8.25;7.55;;;;;;;21.21;70.89;95771.06;4972627;28;20228;-84
2022/08/31 08:20:55;;;;;;;9.55;8.55;;;;;;;21.22;70.64;95760.34;4978112;28;20236;-83
2022/08/31 08:23:22;;;;;;;7.88;7.15;;;;;;;21.30;70.89;95764.41;4978017;28;20188;-83
2022/08/31 08:25:50;;;;;;;8.68;7.95;;;;;;;21.25;70.62;95765.13;4978835;28;20204;-83
2022/08/31 08:28:18;;;;;;;8.30;7.28;;;;;;;21.32;70.70;95762.34;4976588;28;20319;-83
2022/08/31 08:30:49;;;;;;;8.05;7.25;;;;;;;21.29;70.74;95781.97;4977557;28;20676;-81
2022/08/31 08:33:16;;;;;;;8.23;7.43;;;;;;;21.33;71.07;95777.03;4974586;28;20224;-81
2022/08/31 08:35:43;;;;;;;8.40;7.47;;;;;;;21.41;70.55;95774.00;4977022;28;20196;-79
2022/08/31 08:38:10;;;;;;;9.98;9.05;;;;;;;21.43;69.90;95776.38;4976154;28;20275;-83
2022/08/31 08:40:41;;;;;;;12.10;10.57;;;;;;;21.45;70.18;95779.56;4973966;28;20204;-84
2022/08/31 08:43:10;;;;;;;10.98;10.07;;;;;;;21.40;69.77;95782.09;4975422;28;20227;-82
2022/08/31 08:45:37;;;;;;;18.23;14.07;;;;;;;21.41;70.02;95775.81;4974504;28;20204;-83
2022/08/31 08:48:11;;;;;;;8.95;8.05;;;;;;;21.42;70.42;95777.41;4975258;28;20236;-83
2022/08/31 08:50:39;;;;;;;11.48;8.65;;;;;;;21.43;71.20;95784.25;4974908;28;20192;-82
2022/08/31 08:53:09;;;;;;;9.80;8.90;;;;;;;21.52;71.09;95778.38;4975304;28;20224;-82
2022/08/31 08:55:39;;;;;;;9.63;8.63;;;;;;;21.56;71.06;95789.16;4975116;28;20204;-83
2022/08/31 08:58:09;;;;;;;9.10;8.05;;;;;;;21.63;70.92;95787.16;4975076;28;20236;-81
2022/08/31 09:00:37;;;;;;;9.70;8.68;;;;;;;21.70;69.44;95791.22;4978131;28;20200;-80
2022/08/31 09:03:13;;;;;;;10.10;7.97;;;;;;;21.72;69.12;95790.97;4977654;28;20208;-80
2022/08/31 09:06:09;;;;;;;9.45;8.23;;;;;;;21.67;68.86;95793.50;4975192;28;20235;-81
2022/08/31 09:09:06;;;;;;;10.73;7.63;;;;;;;21.75;69.62;95793.09;4967692;28;20246;-79
2022/08/31 09:11:45;;;;;;;11.70;8.65;;;;;;;21.91;67.53;95794.91;4979019;28;20199;-80
2022/08/31 09:14:25;;;;;;;9.07;8.18;;;;;;;22.12;67.29;95792.56;4977883;28;20250;-81
2022/08/31 09:17:01;;;;;;;9.95;8.18;;;;;;;22.17;66.30;95793.41;4975570;28;20199;-80
2022/08/31 09:19:57;;;;;;;9.10;8.20;;;;;;;22.15;65.59;95790.22;4966168;28;20329;-81
2022/08/31 09:22:16;;;;;;;8.70;7.80;;;;;;;22.32;65.83;95787.56;4966790;28;20934;-80
2022/08/31 09:24:42;;;;;;;10.52;9.43;;;;;;;22.32;66.20;95784.94;4974577;28;20559;-80
2022/08/31 09:27:17;;;;;;;12.38;10.48;;;;;;;22.23;65.90;95787.19;4977561;28;20552;-80
2022/08/31 09:29:45;;;;;;;9.15;8.10;;;;;;;22.34;64.74;95791.50;4982221;28;20826;-80
2022/08/31 09:32:21;;;;;;;8.50;7.80;;;;;;;22.37;65.29;95784.97;4977818;28;20235;-80
2022/08/31 09:34:57;;;;;;;9.25;8.35;;;;;;;22.36;65.58;95784.19;4977417;28;20203;-80
2022/08/31 09:37:27;;;;;;;8.32;7.53;;;;;;;22.37;65.08;95783.16;4966188;28;20243;-80
2022/08/31 09:39:54;;;;;;;8.68;7.78;;;;;;;22.39;65.83;95782.91;4971906;28;20599;-80
2022/08/31 09:42:29;;;;;;;7.93;7.13;;;;;;;22.51;65.23;95777.56;4975143;28;20616;-80
2022/08/31 09:44:59;;;;;;;8.52;7.57;;;;;;;22.60;63.49;95779.47;4972884;28;20200;-80
2022/08/31 09:47:47;;;;;;;8.70;7.90;;;;;;;22.66;63.96;95782.94;4975422;28;20196;-80
2022/08/31 09:50:43;;;;;;;8.02;7.30;;;;;;;22.84;63.64;95784.47;4971020;28;20275;-81
2022/08/31 09:56:14;;;;;;;8.13;7.32;;;;;;;22.81;64.16;95782.34;4958157;29;20739;-80
2022/08/31 09:58:47;;;;;;;7.75;7.05;;;;;;;22.93;63.69;95780.34;4974573;28;20259;-81
2022/08/31 10:01:19;;;;;;;12.07;6.18;;;;;;;23.16;62.08;95781.84;4972193;28;20191;-79
2022/08/31 10:03:46;;;;;;;6.93;5.95;;;;;;;23.20;58.97;95786.34;4970817;28;20233;-81
2022/08/31 10:06:40;;;;;;;7.55;6.40;;;;;;;23.20;58.45;95783.72;4969921;28;20212;-80
2022/08/31 10:09:12;;;;;;;9.25;6.05;;;;;;;23.07;59.01;95784.16;4978446;28;20248;-81
2022/08/31 10:11:40;;;;;;;11.55;7.28;;;;;;;22.82;60.36;95782.09;4977659;28;20208;-80
2022/08/31 10:14:15;;;;;;;10.30;9.30;;;;;;;22.61;61.06;95782.88;4978982;28;20215;-80
2022/08/31 10:16:47;;;;;;;14.65;13.05;;;;;;;22.48;62.70;95785.91;4977188;28;20204;-80
2022/08/31 10:19:19;;;;;;;11.88;10.82;;;;;;;22.45;61.65;95786.41;4977643;28;20267;-80
2022/08/31 10:21:52;;;;;;;13.98;10.45;;;;;;;22.48;61.86;95791.94;4977616;28;20240;-81
2022/08/31 10:24:27;;;;;;;8.50;7.00;;;;;;;22.46;61.91;95786.16;4978690;28;20682;-80
2022/08/31 10:27:04;;;;;;;7.80;6.80;;;;;;;22.48;62.57;95791.16;4977802;28;20231;-81
2022/08/31 10:29:38;;;;;;;11.32;7.28;;;;;;;22.43;62.91;95793.72;4977632;28;20235;-80
2022/08/31 10:32:22;;;;;;;9.52;6.47;;;;;;;22.40;62.73;95795.78;4977096;28;20882;-80
2022/08/31 10:35:04;;;;;;;7.13;6.43;;;;;;;22.49;62.67;95798.00;4977856;28;20207;-79
2022/08/31 10:37:42;;;;;;;9.27;6.40;;;;;;;22.42;62.22;95805.25;4977214;28;20280;-79
2022/08/31 10:40:15;;;;;;;8.05;6.18;;;;;;;22.30;61.21;95800.94;4973545;28;20232;-81
2022/08/31 10:42:47;;;;;;;8.48;6.28;;;;;;;22.23;62.30;95805.56;4976483;28;20227;-80
2022/08/31 10:45:17;;;;;;;11.25;9.57;;;;;;;22.18;61.71;95804.69;4975570;28;20235;-81
2022/08/31 10:47:47;;;;;;;24.00;21.80;;;;;;;22.11;62.47;95811.97;4974789;28;20228;-81
2022/08/31 10:50:19;;;;;;;14.20;12.80;;;;;;;22.04;62.47;95806.88;4973549;28;20208;-81
2022/08/31 10:52:57;;;;;;;14.25;12.60;;;;;;;21.99;63.35;95812.03;4974973;28;20228;-80
2022/08/31 10:55:31;;;;;;;11.23;7.03;;;;;;;21.93;62.87;95813.81;4976080;28;20756;-81
2022/08/31 10:58:05;;;;;;;8.82;6.82;;;;;;;21.96;62.34;95813.31;4974888;28;20228;-80
2022/08/31 11:00:45;;;;;;;8.80;7.80;;;;;;;22.07;62.60;95813.47;4974065;28;20219;-82
2022/08/31 11:03:18;;;;;;;8.00;7.20;;;;;;;22.01;62.73;95816.03;4973715;28;20197;-82
2022/08/31 11:05:51;;;;;;;7.95;7.18;;;;;;;21.97;62.98;95814.09;4965930;28;20201;-83
2022/08/31 11:08:44;;;;;;;7.32;6.55;;;;;;;22.02;62.89;95814.19;4954433;28;20319;-82
2022/08/31 11:11:19;;;;;;;10.15;6.50;;;;;;;21.97;62.93;95812.28;4954420;28;20209;-80
2022/08/31 11:14:08;;;;;;;7.25;5.90;;;;;;;21.97;62.59;95812.28;4956219;28;20224;-80
2022/08/31 11:17:01;;;;;;;9.00;6.90;;;;;;;21.90;62.56;95811.66;4953867;29;20212;-80
2022/08/31 11:19:53;;;;;;;7.35;6.47;;;;;;;21.81;62.74;95820.16;4954947;28;20319;-80
2022/08/31 11:22:52;;;;;;;8.23;7.43;;;;;;;21.21;68.98;95832.09;4964428;28;20200;-81
2022/08/31 11:25:57;;;;;;;10.98;8.23;;;;;;;20.66;75.83;95834.50;4976006;28;20333;-81
2022/08/31 11:28:32;;;;;;;9.95;8.75;;;;;;;20.72;80.83;95841.44;4974712;28;20244;-80
2022/08/31 11:31:01;;;;;;;12.45;9.23;;;;;;;20.59;80.56;95837.25;4974311;28;20196;-81
2022/08/31 11:33:30;;;;;;;10.63;9.43;;;;;;;20.51;80.68;95845.47;4970009;28;20211;-82
2022/08/31 11:36:01;;;;;;;11.15;10.00;;;;;;;20.42;82.51;95841.63;4974754;28;20196;-80
2022/08/31 11:38:45;;;;;;;11.43;10.30;;;;;;;20.42;85.56;95841.63;4972913;28;20612;-80
2022/08/31 11:41:33;;;;;;;10.18;9.10;;;;;;;20.46;86.23;95837.50;4972843;28;20722;-80
2022/08/31 11:44:03;;;;;;;9.65;8.75;;;;;;;20.53;83.61;95832.16;4969591;28;20246;-80
2022/08/31 11:46:46;;;;;;;10.60;9.35;;;;;;;20.63;84.73;95841.00;4976379;28;20204;-79
2022/08/31 11:49:35;;;;;;;10.07;9.13;;;;;;;20.58;85.02;95834.88;4975403;28;20228;-80
2022/08/31 11:52:08;;;;;;;9.75;8.77;;;;;;;20.56;86.19;95847.41;4970184;28;20200;-81
2022/08/31 11:55:10;;;;;;;9.60;8.70;;;;;;;20.58;88.21;95856.59;4976533;28;20224;-80
2022/08/31 11:58:14;;;;;;;12.25;10.82;;;;;;;20.62;85.90;95862.94;4979314;28;20203;-81